createdAt,value
2022-12-01T00:00:00.028Z,8.10
2022-12-01T00:01:00.281Z,8.10
2022-12-01T00:02:00.455Z,8.10
2022-12-01T00:03:00.425Z,8.12
2022-12-01T00:03:59.989Z,8.12
2022-12-01T00:05:00.219Z,8.12
2022-12-01T00:05:59.963Z,8.13
2022-12-01T00:06:59.948Z,8.13
2022-12-01T00:08:00.224Z,8.13
2022-12-01T00:08:59.922Z,8.13
2022-12-01T00:09:59.271Z,8.13
2022-12-01T00:11:00.159Z,8.13
2022-12-01T00:12:00.150Z,8.14
2022-12-01T00:12:59.842Z,8.13
2022-12-01T00:13:59.881Z,8.15
2022-12-01T00:15:00.124Z,8.13
2022-12-01T00:16:00.149Z,8.13
2022-12-01T00:16:59.864Z,8.12
2022-12-01T00:18:00.628Z,8.11
2022-12-01T00:18:59.811Z,8.09
2022-12-01T00:20:00.089Z,8.08
2022-12-01T00:21:00.531Z,8.05
2022-12-01T00:21:59.782Z,8.05
2022-12-01T00:23:00.033Z,8.04
2022-12-01T00:24:00.083Z,8.04
2022-12-01T00:24:59.752Z,8.03
2022-12-01T00:25:59.992Z,8.03
2022-12-01T00:26:59.733Z,8.02
2022-12-01T00:27:59.985Z,8.02
2022-12-01T00:28:59.714Z,8.02
2022-12-01T00:29:59.687Z,8.01
2022-12-01T00:30:59.793Z,8.01
2022-12-01T00:31:59.055Z,8.01
2022-12-01T00:32:59.664Z,8.00
2022-12-01T00:33:59.923Z,8.00
2022-12-01T00:34:59.894Z,7.99
2022-12-01T00:35:59.907Z,7.98
2022-12-01T00:36:59.866Z,7.97
2022-12-01T00:37:59.619Z,7.96
2022-12-01T00:38:59.858Z,7.95
2022-12-01T00:40:00.371Z,7.94
2022-12-01T00:40:59.576Z,7.94
2022-12-01T00:41:59.645Z,7.94
2022-12-01T00:42:59.555Z,7.92
2022-12-01T00:43:59.551Z,7.93
2022-12-01T00:44:59.787Z,7.93
2022-12-01T00:45:59.617Z,7.92
2022-12-01T00:46:59.756Z,7.93
2022-12-01T00:47:59.488Z,7.93
2022-12-01T00:48:59.495Z,7.92
2022-12-01T00:49:59.756Z,7.92
2022-12-01T00:50:59.706Z,7.92
2022-12-01T00:51:59.718Z,7.92
2022-12-01T00:52:59.702Z,7.92
2022-12-01T00:53:59.739Z,7.91
2022-12-01T00:55:00.120Z,7.91
2022-12-01T00:55:59.667Z,7.91
2022-12-01T00:56:59.417Z,7.91
2022-12-01T00:57:59.657Z,7.90
2022-12-01T00:58:59.369Z,7.90
2022-12-01T00:59:59.627Z,7.89
2022-12-01T01:00:59.415Z,7.88
2022-12-01T01:01:59.655Z,7.87
2022-12-01T01:02:58.758Z,7.86
2022-12-01T01:03:59.339Z,7.86
2022-12-01T01:04:59.309Z,7.86
2022-12-01T01:05:59.569Z,7.85
2022-12-01T01:06:59.299Z,7.84
2022-12-01T01:07:59.600Z,7.83
2022-12-01T01:08:59.531Z,7.83
2022-12-01T01:09:59.540Z,7.83
2022-12-01T01:10:59.500Z,7.83
2022-12-01T01:11:59.509Z,7.83
2022-12-01T01:12:59.528Z,7.83
2022-12-01T01:13:59.229Z,7.83
2022-12-01T01:14:59.470Z,7.83
2022-12-01T01:15:59.510Z,7.83
2022-12-01T01:16:59.291Z,7.83
2022-12-01T01:17:59.476Z,7.84
2022-12-01T01:18:59.171Z,7.84
2022-12-01T01:19:58.511Z,7.85
2022-12-01T01:20:59.403Z,7.85
2022-12-01T01:21:59.220Z,7.86
2022-12-01T01:22:59.383Z,7.86
2022-12-01T01:23:59.137Z,7.87
2022-12-01T01:24:59.373Z,7.88
2022-12-01T01:25:59.104Z,7.87
2022-12-01T01:26:59.023Z,7.87
2022-12-01T01:27:59.433Z,7.87
2022-12-01T01:28:59.332Z,7.89
2022-12-01T01:29:59.350Z,7.90
2022-12-01T01:30:58.660Z,7.91
2022-12-01T01:31:59.793Z,7.90
2022-12-01T01:32:59.026Z,7.91
2022-12-01T01:33:59.399Z,7.91
2022-12-01T01:34:59.267Z,7.91
2022-12-01T01:35:58.984Z,7.91
2022-12-01T01:36:58.981Z,7.91
2022-12-01T01:37:58.973Z,7.91
2022-12-01T01:38:58.964Z,7.91
2022-12-01T01:39:59.234Z,7.90
2022-12-01T01:40:58.936Z,7.89
2022-12-01T01:41:58.929Z,7.90
2022-12-01T01:43:00.187Z,7.89
2022-12-01T01:43:59.199Z,7.89
2022-12-01T01:45:00.270Z,7.88
2022-12-01T01:45:58.933Z,7.88
2022-12-01T01:46:58.884Z,7.88
2022-12-01T01:47:59.139Z,7.87
2022-12-01T01:49:00.138Z,7.86
2022-12-01T01:49:58.326Z,7.87
2022-12-01T01:51:00.652Z,7.87
2022-12-01T01:52:00.106Z,7.86
2022-12-01T01:52:59.605Z,7.88
2022-12-01T01:54:00.086Z,7.89
2022-12-01T01:54:59.041Z,7.89
2022-12-01T01:55:59.062Z,7.90
2022-12-01T01:57:00.169Z,7.91
2022-12-01T01:57:59.008Z,7.92
2022-12-01T01:58:59.027Z,7.92
2022-12-01T01:59:58.998Z,7.93
2022-12-01T02:00:58.761Z,7.92
2022-12-01T02:01:58.989Z,7.93
2022-12-01T02:02:59.122Z,7.93
2022-12-01T02:03:58.688Z,7.93
2022-12-01T02:04:59.949Z,7.94
2022-12-01T02:06:03.427Z,7.94
2022-12-01T02:07:00.399Z,7.94
2022-12-01T02:07:58.013Z,7.95
2022-12-01T02:09:00.082Z,7.94
2022-12-01T02:09:59.389Z,7.94
2022-12-01T02:10:58.611Z,7.93
2022-12-01T02:11:58.607Z,7.94
2022-12-01T02:12:58.600Z,7.94
2022-12-01T02:13:58.835Z,7.94
2022-12-01T02:14:58.955Z,7.93
2022-12-01T02:15:58.573Z,7.93
2022-12-01T02:16:57.933Z,7.92
2022-12-01T02:17:58.820Z,7.91
2022-12-01T02:18:58.537Z,7.91
2022-12-01T02:19:58.762Z,7.91
2022-12-01T02:20:58.794Z,7.91
2022-12-01T02:21:58.493Z,7.91
2022-12-01T02:22:58.542Z,7.90
2022-12-01T02:23:58.733Z,7.90
2022-12-01T02:24:58.744Z,7.90
2022-12-01T02:25:58.731Z,7.90
2022-12-01T02:26:58.738Z,7.90
2022-12-01T02:27:59.184Z,7.90
2022-12-01T02:28:58.434Z,7.90
2022-12-01T02:29:58.693Z,7.90
2022-12-01T02:30:58.695Z,7.89
2022-12-01T02:31:58.714Z,7.88
2022-12-01T02:32:58.375Z,7.88
2022-12-01T02:33:58.663Z,7.88
2022-12-01T02:34:58.666Z,7.87
2022-12-01T02:35:58.613Z,7.86
2022-12-01T02:36:58.608Z,7.85
2022-12-01T02:37:58.595Z,7.84
2022-12-01T02:38:58.584Z,7.84
2022-12-01T02:39:58.544Z,7.84
2022-12-01T02:40:58.580Z,7.84
2022-12-01T02:41:58.275Z,7.83
2022-12-01T02:42:58.557Z,7.84
2022-12-01T02:43:57.612Z,7.84
2022-12-01T02:44:58.247Z,7.83
2022-12-01T02:45:57.638Z,7.83
2022-12-01T02:46:58.106Z,7.82
2022-12-01T02:47:58.226Z,7.83
2022-12-01T02:48:58.389Z,7.83
2022-12-01T02:49:58.517Z,7.83
2022-12-01T02:50:58.186Z,7.83
2022-12-01T02:51:57.498Z,7.84
2022-12-01T02:52:58.169Z,7.84
2022-12-01T02:53:58.148Z,7.84
2022-12-01T02:54:58.412Z,7.84
2022-12-01T02:55:58.127Z,7.84
2022-12-01T02:56:58.119Z,7.84
2022-12-01T02:57:58.124Z,7.85
2022-12-01T02:58:58.387Z,7.85
2022-12-01T02:59:58.169Z,7.85
2022-12-01T03:00:58.115Z,7.86
2022-12-01T03:01:58.070Z,7.86
2022-12-01T03:02:58.115Z,7.86
2022-12-01T03:03:58.048Z,7.87
2022-12-01T03:04:58.288Z,7.87
2022-12-01T03:05:58.312Z,7.87
2022-12-01T03:06:58.308Z,7.88
2022-12-01T03:07:57.490Z,7.87
2022-12-01T03:08:57.994Z,7.88
2022-12-01T03:09:57.980Z,7.88
2022-12-01T03:10:57.996Z,7.88
2022-12-01T03:11:58.733Z,7.89
2022-12-01T03:12:57.260Z,7.88
2022-12-01T03:13:57.271Z,7.89
2022-12-01T03:14:57.934Z,7.89
2022-12-01T03:15:59.268Z,7.89
2022-12-01T03:16:58.570Z,7.89
2022-12-01T03:17:57.902Z,7.89
2022-12-01T03:18:57.891Z,7.89
2022-12-01T03:19:57.882Z,7.89
2022-12-01T03:20:57.866Z,7.88
2022-12-01T03:21:57.864Z,7.89
2022-12-01T03:22:58.112Z,7.89
2022-12-01T03:23:58.173Z,7.89
2022-12-01T03:24:59.095Z,7.90
2022-12-01T03:25:59.088Z,7.90
2022-12-01T03:26:59.061Z,7.89
2022-12-01T03:28:21.347Z,7.89
2022-12-01T03:28:59.083Z,7.88
2022-12-01T03:29:59.024Z,7.88
2022-12-01T03:30:59.074Z,7.88
2022-12-01T03:31:59.014Z,7.88
2022-12-01T03:32:59.015Z,7.87
2022-12-01T03:33:58.994Z,7.86
2022-12-01T03:34:59.004Z,7.86
2022-12-01T03:35:57.953Z,7.84
2022-12-01T03:36:57.965Z,7.82
2022-12-01T03:37:58.939Z,7.81
2022-12-01T03:38:58.937Z,7.79
2022-12-01T03:40:00.690Z,7.79
2022-12-01T03:40:58.979Z,7.77
2022-12-01T03:41:57.896Z,7.75
2022-12-01T03:42:57.906Z,7.73
2022-12-01T03:43:57.875Z,7.73
2022-12-01T03:44:58.867Z,7.72
2022-12-01T03:45:58.920Z,7.73
2022-12-01T03:46:58.787Z,7.71
2022-12-01T03:47:57.826Z,7.71
2022-12-01T03:48:57.845Z,7.70
2022-12-01T03:49:58.825Z,7.71
2022-12-01T03:50:58.809Z,7.71
2022-12-01T03:51:57.789Z,7.71
2022-12-01T03:52:57.800Z,7.71
2022-12-01T03:53:58.776Z,7.71
2022-12-01T03:54:57.788Z,7.71
2022-12-01T03:55:57.748Z,7.70
2022-12-01T03:56:58.738Z,7.71
2022-12-01T03:57:58.747Z,7.71
2022-12-01T03:58:58.709Z,7.70
2022-12-01T03:59:58.718Z,7.71
2022-12-01T04:00:57.446Z,7.70
2022-12-01T04:01:57.740Z,7.70
2022-12-01T04:02:58.775Z,7.70
2022-12-01T04:03:58.780Z,7.68
2022-12-01T04:04:57.670Z,7.67
2022-12-01T04:05:57.671Z,7.66
2022-12-01T04:06:58.669Z,7.66
2022-12-01T04:07:58.717Z,7.65
2022-12-01T04:08:58.629Z,7.64
2022-12-01T04:09:58.701Z,7.63
2022-12-01T04:10:57.590Z,7.62
2022-12-01T04:11:57.569Z,7.62
2022-12-01T04:12:57.579Z,7.59
2022-12-01T04:13:58.581Z,7.59
2022-12-01T04:14:58.541Z,7.57
2022-12-01T04:15:58.610Z,7.58
2022-12-01T04:16:57.530Z,7.58
2022-12-01T04:17:57.521Z,7.58
2022-12-01T04:18:58.517Z,7.58
2022-12-01T04:19:58.501Z,7.57
2022-12-01T04:20:58.032Z,7.56
2022-12-01T04:21:56.592Z,7.55
2022-12-01T04:22:58.474Z,7.53
2022-12-01T04:23:58.511Z,7.52
2022-12-01T04:24:58.173Z,7.51
2022-12-01T04:25:58.457Z,7.50
2022-12-01T04:26:58.435Z,7.49
2022-12-01T04:27:58.532Z,7.49
2022-12-01T04:28:58.408Z,7.48
2022-12-01T04:29:58.419Z,7.48
2022-12-01T04:30:57.143Z,7.47
2022-12-01T04:31:57.898Z,7.46
2022-12-01T04:32:58.363Z,7.46
2022-12-01T04:33:57.374Z,7.45
2022-12-01T04:34:57.338Z,7.44
2022-12-01T04:35:58.354Z,7.42
2022-12-01T04:36:58.324Z,7.41
2022-12-01T04:37:57.315Z,7.41
2022-12-01T04:38:57.824Z,7.42
2022-12-01T04:39:58.335Z,7.41
2022-12-01T04:40:58.292Z,7.42
2022-12-01T04:41:58.289Z,7.44
2022-12-01T04:42:58.267Z,7.43
2022-12-01T04:43:58.267Z,7.44
2022-12-01T04:44:58.258Z,7.44
2022-12-01T04:45:57.755Z,7.44
2022-12-01T04:46:58.294Z,7.44
2022-12-01T04:47:58.207Z,7.44
2022-12-01T04:48:58.227Z,7.45
2022-12-01T04:49:57.178Z,7.44
2022-12-01T04:50:58.179Z,7.43
2022-12-01T04:51:58.201Z,7.42
2022-12-01T04:52:58.171Z,7.41
2022-12-01T04:53:58.148Z,7.41
2022-12-01T04:54:58.137Z,7.40
2022-12-01T04:55:58.159Z,7.39
2022-12-01T04:56:58.118Z,7.38
2022-12-01T04:57:58.216Z,7.36
2022-12-01T04:58:58.098Z,7.36
2022-12-01T04:59:58.092Z,7.33
2022-12-01T05:00:56.838Z,7.31
2022-12-01T05:01:58.136Z,7.30
2022-12-01T05:02:58.058Z,7.29
2022-12-01T05:03:58.078Z,7.29
2022-12-01T05:04:56.759Z,7.28
2022-12-01T05:05:58.029Z,7.28
2022-12-01T05:06:56.999Z,7.28
2022-12-01T05:07:58.086Z,7.28
2022-12-01T05:08:57.992Z,7.28
2022-12-01T05:09:58.130Z,7.30
2022-12-01T05:10:57.981Z,7.30
2022-12-01T05:11:56.974Z,7.31
2022-12-01T05:12:56.924Z,7.31
2022-12-01T05:13:57.922Z,7.32
2022-12-01T05:14:56.920Z,7.33
2022-12-01T05:15:56.998Z,7.32
2022-12-01T05:16:56.643Z,7.32
2022-12-01T05:17:57.391Z,7.31
2022-12-01T05:18:57.429Z,7.30
2022-12-01T05:19:56.922Z,7.28
2022-12-01T05:20:57.912Z,7.29
2022-12-01T05:21:58.009Z,7.28
2022-12-01T05:23:05.305Z,7.27
2022-12-01T05:23:57.844Z,7.27
2022-12-01T05:24:56.792Z,7.26
2022-12-01T05:25:56.792Z,7.25
2022-12-01T05:26:56.523Z,7.25
2022-12-01T05:27:56.802Z,7.24
2022-12-01T05:28:56.753Z,7.23
2022-12-01T05:29:57.176Z,7.23
2022-12-01T05:30:56.753Z,7.22
2022-12-01T05:31:56.771Z,7.23
2022-12-01T05:32:56.715Z,7.23
2022-12-01T05:33:56.533Z,7.22
2022-12-01T05:34:56.445Z,7.21
2022-12-01T05:35:56.435Z,7.20
2022-12-01T05:36:56.664Z,7.19
2022-12-01T05:37:56.664Z,7.18
2022-12-01T05:38:56.646Z,7.19
2022-12-01T05:39:56.376Z,7.17
2022-12-01T05:40:56.614Z,7.18
2022-12-01T05:41:56.616Z,7.16
2022-12-01T05:42:56.365Z,7.15
2022-12-01T05:43:56.625Z,7.15
2022-12-01T05:44:56.336Z,7.14
2022-12-01T05:45:56.691Z,7.13
2022-12-01T05:46:56.315Z,7.13
2022-12-01T05:47:56.556Z,7.12
2022-12-01T05:48:56.535Z,7.11
2022-12-01T05:49:59.588Z,7.11
2022-12-01T05:50:57.571Z,7.11
2022-12-01T05:51:56.266Z,7.10
2022-12-01T05:52:56.506Z,7.10
2022-12-01T05:53:56.247Z,7.10
2022-12-01T05:54:56.487Z,7.10
2022-12-01T05:55:56.228Z,7.10
2022-12-01T05:56:56.196Z,7.09
2022-12-01T05:57:55.549Z,7.08
2022-12-01T05:58:56.188Z,7.08
2022-12-01T05:59:56.183Z,7.08
2022-12-01T06:00:56.167Z,7.07
2022-12-01T06:01:56.445Z,7.07
2022-12-01T06:02:56.138Z,7.08
2022-12-01T06:03:56.450Z,7.07
2022-12-01T06:04:56.129Z,7.09
2022-12-01T06:05:57.287Z,7.10
2022-12-01T06:06:56.109Z,7.10
2022-12-01T06:07:56.396Z,7.11
2022-12-01T06:08:56.078Z,7.13
2022-12-01T06:09:55.390Z,7.13
2022-12-01T06:10:56.063Z,7.15
2022-12-01T06:11:55.370Z,7.14
2022-12-01T06:12:56.048Z,7.14
2022-12-01T06:13:55.364Z,7.14
2022-12-01T06:14:56.301Z,7.14
2022-12-01T06:15:56.027Z,7.14
2022-12-01T06:16:55.380Z,7.14
2022-12-01T06:17:55.991Z,7.15
2022-12-01T06:18:55.982Z,7.15
2022-12-01T06:19:55.306Z,7.14
2022-12-01T06:20:56.020Z,7.14
2022-12-01T06:21:55.959Z,7.15
2022-12-01T06:22:55.262Z,7.15
2022-12-01T06:23:56.163Z,7.14
2022-12-01T06:24:55.912Z,7.15
2022-12-01T06:25:57.183Z,7.14
2022-12-01T06:26:57.262Z,7.14
2022-12-01T06:27:55.201Z,7.15
2022-12-01T06:28:56.615Z,7.16
2022-12-01T06:29:55.873Z,7.17
2022-12-01T06:31:02.550Z,7.17
2022-12-01T06:31:58.217Z,7.18
2022-12-01T06:32:55.833Z,7.17
2022-12-01T06:33:55.824Z,7.17
2022-12-01T06:34:56.053Z,7.17
2022-12-01T06:35:55.804Z,7.17
2022-12-01T06:36:55.792Z,7.17
2022-12-01T06:37:55.134Z,7.17
2022-12-01T06:38:55.104Z,7.18
2022-12-01T06:39:55.108Z,7.17
2022-12-01T06:40:55.753Z,7.18
2022-12-01T06:41:55.744Z,7.19
2022-12-01T06:42:55.726Z,7.20
2022-12-01T06:43:55.053Z,7.20
2022-12-01T06:44:55.709Z,7.21
2022-12-01T06:46:01.196Z,7.21
2022-12-01T06:46:56.937Z,7.22
2022-12-01T06:47:55.666Z,7.22
2022-12-01T06:48:54.983Z,7.22
2022-12-01T06:49:55.077Z,7.24
2022-12-01T06:50:55.879Z,7.24
2022-12-01T06:51:54.956Z,7.24
2022-12-01T06:52:54.946Z,7.23
2022-12-01T06:53:57.716Z,7.23
2022-12-01T06:54:57.386Z,7.22
2022-12-01T06:55:54.906Z,7.21
2022-12-01T06:56:54.946Z,7.21
2022-12-01T06:57:56.327Z,7.20
2022-12-01T06:58:55.867Z,7.18
2022-12-01T06:59:55.557Z,7.18
2022-12-01T07:00:55.690Z,7.16
2022-12-01T07:01:55.847Z,7.16
2022-12-01T07:02:54.882Z,7.16
2022-12-01T07:03:54.835Z,7.15
2022-12-01T07:04:54.809Z,7.15
2022-12-01T07:05:55.492Z,7.15
2022-12-01T07:06:55.463Z,7.16
2022-12-01T07:07:59.520Z,7.17
2022-12-01T07:08:54.769Z,7.17
2022-12-01T07:09:55.699Z,7.17
2022-12-01T07:10:55.435Z,7.17
2022-12-01T07:11:54.740Z,7.17
2022-12-01T07:12:55.419Z,7.17
2022-12-01T07:13:54.721Z,7.18
2022-12-01T07:14:55.690Z,7.17
2022-12-01T07:15:55.381Z,7.18
2022-12-01T07:16:54.804Z,7.18
2022-12-01T07:17:55.361Z,7.17
2022-12-01T07:18:54.711Z,7.17
2022-12-01T07:19:54.682Z,7.16
2022-12-01T07:20:54.661Z,7.16
2022-12-01T07:21:55.312Z,7.17
2022-12-01T07:22:55.301Z,7.17
2022-12-01T07:23:54.626Z,7.17
2022-12-01T07:24:55.281Z,7.18
2022-12-01T07:25:55.281Z,7.18
2022-12-01T07:26:55.272Z,7.17
2022-12-01T07:27:55.262Z,7.17
2022-12-01T07:28:55.242Z,7.17
2022-12-01T07:29:54.563Z,7.16
2022-12-01T07:30:55.252Z,7.16
2022-12-01T07:31:54.535Z,7.17
2022-12-01T07:32:55.213Z,7.15
2022-12-01T07:33:55.461Z,7.15
2022-12-01T07:34:54.514Z,7.15
2022-12-01T07:35:55.178Z,7.15
2022-12-01T07:36:55.142Z,7.16
2022-12-01T07:37:55.163Z,7.16
2022-12-01T07:38:55.145Z,7.17
2022-12-01T07:39:54.485Z,7.18
2022-12-01T07:40:55.115Z,7.19
2022-12-01T07:41:55.105Z,7.20
2022-12-01T07:42:55.195Z,7.20
2022-12-01T07:43:55.347Z,7.22
2022-12-01T07:44:55.078Z,7.24
2022-12-01T07:45:54.416Z,7.24
2022-12-01T07:46:55.069Z,7.24
2022-12-01T07:47:54.384Z,7.24
2022-12-01T07:48:54.387Z,7.24
2022-12-01T07:49:54.346Z,7.26
2022-12-01T07:50:54.367Z,7.26
2022-12-01T07:51:54.336Z,7.28
2022-12-01T07:52:54.997Z,7.29
2022-12-01T07:53:55.275Z,7.28
2022-12-01T07:54:54.989Z,7.29
2022-12-01T07:55:54.316Z,7.29
2022-12-01T07:56:54.956Z,7.30
2022-12-01T07:57:54.266Z,7.29
2022-12-01T07:58:54.275Z,7.30
2022-12-01T07:59:54.917Z,7.30
2022-12-01T08:00:54.302Z,7.29
2022-12-01T08:01:54.298Z,7.30
2022-12-01T08:02:54.299Z,7.30
2022-12-01T08:03:55.180Z,7.30
2022-12-01T08:04:54.868Z,7.30
2022-12-01T08:05:54.859Z,7.31
2022-12-01T08:06:54.828Z,7.30
2022-12-01T08:07:54.885Z,7.31
2022-12-01T08:08:54.819Z,7.30
2022-12-01T08:09:54.814Z,7.31
2022-12-01T08:10:54.807Z,7.31
2022-12-01T08:11:54.789Z,7.31
2022-12-01T08:12:55.074Z,7.31
2022-12-01T08:13:54.767Z,7.33
2022-12-01T08:14:55.021Z,7.35
2022-12-01T08:15:54.798Z,7.34
2022-12-01T08:16:54.744Z,7.35
2022-12-01T08:17:54.990Z,7.35
2022-12-01T08:18:55.001Z,7.36
2022-12-01T08:19:54.700Z,7.36
2022-12-01T08:20:54.703Z,7.37
2022-12-01T08:21:55.461Z,7.38
2022-12-01T08:22:54.931Z,7.38
2022-12-01T08:23:54.968Z,7.39
2022-12-01T08:24:54.643Z,7.39
2022-12-01T08:25:54.647Z,7.39
2022-12-01T08:26:54.632Z,7.39
2022-12-01T08:27:54.621Z,7.39
2022-12-01T08:28:54.614Z,7.38
2022-12-01T08:29:54.605Z,7.37
2022-12-01T08:30:54.611Z,7.37
2022-12-01T08:31:54.833Z,7.36
2022-12-01T08:32:54.853Z,7.35
2022-12-01T08:33:54.837Z,7.35
2022-12-01T08:34:54.843Z,7.35
2022-12-01T08:35:54.852Z,7.35
2022-12-01T08:36:54.512Z,7.35
2022-12-01T08:37:54.515Z,7.35
2022-12-01T08:38:54.513Z,7.36
2022-12-01T08:39:54.777Z,7.36
2022-12-01T08:40:54.764Z,7.36
2022-12-01T08:41:54.798Z,7.38
2022-12-01T08:42:54.853Z,7.38
2022-12-01T08:43:59.127Z,7.38
2022-12-01T08:44:55.761Z,7.38
2022-12-01T08:45:54.715Z,7.38
2022-12-01T08:46:54.531Z,7.38
2022-12-01T08:47:54.414Z,7.39
2022-12-01T08:48:54.473Z,7.40
2022-12-01T08:49:54.649Z,7.42
2022-12-01T08:50:54.387Z,7.43
2022-12-01T08:51:54.368Z,7.45
2022-12-01T08:52:54.676Z,7.44
2022-12-01T08:53:54.346Z,7.44
2022-12-01T08:54:54.407Z,7.44
2022-12-01T08:55:54.597Z,7.45
2022-12-01T08:56:54.580Z,7.46
2022-12-01T08:57:54.567Z,7.47
2022-12-01T08:58:54.303Z,7.48
2022-12-01T08:59:54.285Z,7.50
2022-12-01T09:00:54.276Z,7.51
2022-12-01T09:01:54.587Z,7.52
2022-12-01T09:02:54.290Z,7.52
2022-12-01T09:03:54.237Z,7.53
2022-12-01T09:04:54.530Z,7.53
2022-12-01T09:05:54.477Z,7.52
2022-12-01T09:06:54.597Z,7.52
2022-12-01T09:07:54.244Z,7.52
2022-12-01T09:08:54.448Z,7.52
2022-12-01T09:09:54.429Z,7.51
2022-12-01T09:10:54.161Z,7.51
2022-12-01T09:11:54.156Z,7.52
2022-12-01T09:12:54.159Z,7.53
2022-12-01T09:13:54.827Z,7.53
2022-12-01T09:14:54.389Z,7.55
2022-12-01T09:15:54.175Z,7.55
2022-12-01T09:16:54.372Z,7.56
2022-12-01T09:17:54.101Z,7.56
2022-12-01T09:18:54.083Z,7.56
2022-12-01T09:19:54.071Z,7.58
2022-12-01T09:20:54.334Z,7.60
2022-12-01T09:21:54.058Z,7.61
2022-12-01T09:22:53.400Z,7.63
2022-12-01T09:23:54.280Z,7.64
2022-12-01T09:24:54.002Z,7.65
2022-12-01T09:25:54.283Z,7.66
2022-12-01T09:26:54.251Z,7.67
2022-12-01T09:27:53.991Z,7.69
2022-12-01T09:28:53.997Z,7.70
2022-12-01T09:29:53.969Z,7.73
2022-12-01T09:30:54.251Z,7.77
2022-12-01T09:31:53.959Z,7.78
2022-12-01T09:32:54.183Z,7.79
2022-12-01T09:33:53.930Z,7.80
2022-12-01T09:34:53.921Z,7.81
2022-12-01T09:35:53.903Z,7.83
2022-12-01T09:36:54.276Z,7.85
2022-12-01T09:37:54.132Z,7.86
2022-12-01T09:38:53.876Z,7.86
2022-12-01T09:39:53.865Z,7.88
2022-12-01T09:40:54.137Z,7.89
2022-12-01T09:41:53.847Z,7.90
2022-12-01T09:42:53.904Z,7.91
2022-12-01T09:43:54.073Z,7.92
2022-12-01T09:44:53.813Z,7.92
2022-12-01T09:45:53.125Z,7.92
2022-12-01T09:46:54.082Z,7.93
2022-12-01T09:47:53.788Z,7.92
2022-12-01T09:48:54.154Z,7.93
2022-12-01T09:49:54.014Z,7.93
2022-12-01T09:50:54.008Z,7.93
2022-12-01T09:51:53.736Z,7.93
2022-12-01T09:52:53.736Z,7.93
2022-12-01T09:53:53.965Z,7.94
2022-12-01T09:54:53.689Z,7.93
2022-12-01T09:55:54.559Z,7.93
2022-12-01T09:56:53.947Z,7.94
2022-12-01T09:57:53.927Z,7.94
2022-12-01T09:58:53.672Z,7.94
2022-12-01T09:59:53.659Z,7.95
2022-12-01T10:00:53.652Z,7.96
2022-12-01T10:01:54.088Z,7.96
2022-12-01T10:02:52.951Z,7.99
2022-12-01T10:03:53.886Z,7.98
2022-12-01T10:04:53.658Z,7.99
2022-12-01T10:06:25.354Z,7.98
2022-12-01T10:06:54.958Z,7.98
2022-12-01T10:07:53.636Z,7.97
2022-12-01T10:08:52.897Z,7.98
2022-12-01T10:09:52.900Z,7.99
2022-12-01T10:10:53.537Z,8.01
2022-12-01T10:11:53.774Z,8.01
2022-12-01T10:12:52.878Z,8.01
2022-12-01T10:13:52.818Z,8.01
2022-12-01T10:14:52.829Z,8.00
2022-12-01T10:15:52.854Z,8.00
2022-12-01T10:16:53.479Z,7.99
2022-12-01T10:17:52.790Z,7.99
2022-12-01T10:18:52.880Z,8.00
2022-12-01T10:19:53.446Z,8.01
2022-12-01T10:20:52.780Z,8.02
2022-12-01T10:21:52.761Z,8.03
2022-12-01T10:22:53.660Z,8.04
2022-12-01T10:23:53.401Z,8.03
2022-12-01T10:24:53.471Z,8.02
2022-12-01T10:25:53.389Z,8.01
2022-12-01T10:26:53.370Z,8.00
2022-12-01T10:27:53.362Z,7.99
2022-12-01T10:28:53.342Z,7.98
2022-12-01T10:29:53.959Z,7.99
2022-12-01T10:30:52.790Z,7.98
2022-12-01T10:31:53.399Z,7.97
2022-12-01T10:32:53.302Z,7.99
2022-12-01T10:33:52.641Z,8.00
2022-12-01T10:34:52.624Z,8.02
2022-12-01T10:35:52.763Z,8.03
2022-12-01T10:36:53.245Z,8.06
2022-12-01T10:37:52.620Z,8.07
2022-12-01T10:38:53.243Z,8.09
2022-12-01T10:39:53.373Z,8.11
2022-12-01T10:40:52.566Z,8.12
2022-12-01T10:41:52.584Z,8.14
2022-12-01T10:42:53.294Z,8.16
2022-12-01T10:43:52.543Z,8.18
2022-12-01T10:44:52.523Z,8.20
2022-12-01T10:45:53.627Z,8.22
2022-12-01T10:46:53.153Z,8.23
2022-12-01T10:47:57.581Z,8.24
2022-12-01T10:48:54.540Z,8.24
2022-12-01T10:49:53.305Z,8.23
2022-12-01T10:50:52.462Z,8.22
2022-12-01T10:51:52.446Z,8.22
2022-12-01T10:52:53.837Z,8.21
2022-12-01T10:53:53.076Z,8.20
2022-12-01T10:54:53.146Z,8.19
2022-12-01T10:55:53.067Z,8.18
2022-12-01T10:56:52.396Z,8.17
2022-12-01T10:57:52.376Z,8.15
2022-12-01T10:58:53.027Z,8.16
2022-12-01T10:59:52.583Z,8.20
2022-12-01T11:01:09.576Z,8.23
2022-12-01T11:01:54.155Z,8.25
2022-12-01T11:02:52.506Z,8.26
2022-12-01T11:03:52.423Z,8.26
2022-12-01T11:04:52.968Z,8.27
2022-12-01T11:05:52.286Z,8.27
2022-12-01T11:06:52.367Z,8.29
2022-12-01T11:07:52.371Z,8.30
2022-12-01T11:08:52.916Z,8.32
2022-12-01T11:09:52.917Z,8.34
2022-12-01T11:10:52.906Z,8.36
2022-12-01T11:11:52.888Z,8.37
2022-12-01T11:12:52.897Z,8.39
2022-12-01T11:13:52.210Z,8.40
2022-12-01T11:14:52.199Z,8.41
2022-12-01T11:15:52.845Z,8.42
2022-12-01T11:16:52.876Z,8.42
2022-12-01T11:17:53.580Z,8.43
2022-12-01T11:18:52.818Z,8.43
2022-12-01T11:19:52.633Z,8.42
2022-12-01T11:20:52.798Z,8.42
2022-12-01T11:21:52.110Z,8.42
2022-12-01T11:22:53.548Z,8.43
2022-12-01T11:23:52.120Z,8.43
2022-12-01T11:24:52.842Z,8.42
2022-12-01T11:25:52.746Z,8.44
2022-12-01T11:26:52.721Z,8.44
2022-12-01T11:27:52.713Z,8.45
2022-12-01T11:28:52.708Z,8.46
2022-12-01T11:29:52.922Z,8.47
2022-12-01T11:30:56.500Z,8.47
2022-12-01T11:31:53.479Z,8.46
2022-12-01T11:32:52.660Z,8.45
2022-12-01T11:33:52.653Z,8.46
2022-12-01T11:34:52.643Z,8.44
2022-12-01T11:35:52.643Z,8.44
2022-12-01T11:36:52.075Z,8.44
2022-12-01T11:38:27.276Z,8.43
2022-12-01T11:38:54.343Z,8.42
2022-12-01T11:39:52.536Z,8.42
2022-12-01T11:40:51.896Z,8.40
2022-12-01T11:41:51.925Z,8.39
2022-12-01T11:42:52.539Z,8.39
2022-12-01T11:44:01.071Z,8.37
2022-12-01T11:44:53.541Z,8.36
2022-12-01T11:45:53.345Z,8.36
2022-12-01T11:47:07.635Z,8.34
2022-12-01T11:47:52.941Z,8.34
2022-12-01T11:48:51.834Z,8.34
2022-12-01T11:49:52.947Z,8.33
2022-12-01T11:50:52.465Z,8.33
2022-12-01T11:51:52.456Z,8.33
2022-12-01T11:52:52.747Z,8.33
2022-12-01T11:53:51.885Z,8.34
2022-12-01T11:54:52.423Z,8.35
2022-12-01T11:55:52.420Z,8.36
2022-12-01T11:57:17.426Z,8.38
2022-12-01T11:57:52.803Z,8.40
2022-12-01T11:58:52.465Z,8.41
2022-12-01T11:59:52.705Z,8.42
2022-12-01T12:00:52.356Z,8.43
2022-12-01T12:01:52.352Z,8.45
2022-12-01T12:02:51.736Z,8.46
2022-12-01T12:03:51.667Z,8.47
2022-12-01T12:04:51.642Z,8.49
2022-12-01T12:05:52.851Z,8.52
2022-12-01T12:06:51.619Z,8.54
2022-12-01T12:07:52.368Z,8.53
2022-12-01T12:08:52.304Z,8.54
2022-12-01T12:09:52.010Z,8.55
2022-12-01T12:10:52.331Z,8.58
2022-12-01T12:11:52.310Z,8.60
2022-12-01T12:12:52.230Z,8.62
2022-12-01T12:13:51.549Z,8.63
2022-12-01T12:14:52.201Z,8.63
2022-12-01T12:15:51.568Z,8.62
2022-12-01T12:16:52.191Z,8.61
2022-12-01T12:17:51.745Z,8.59
2022-12-01T12:18:52.159Z,8.55
2022-12-01T12:20:08.838Z,8.54
2022-12-01T12:20:52.480Z,8.53
2022-12-01T12:21:51.493Z,8.52
2022-12-01T12:22:55.448Z,8.51
2022-12-01T12:23:51.467Z,8.50
2022-12-01T12:24:52.091Z,8.49
2022-12-01T12:25:51.431Z,8.49
2022-12-01T12:26:51.421Z,8.47
2022-12-01T12:27:52.065Z,8.45
2022-12-01T12:28:51.401Z,8.43
2022-12-01T12:29:51.958Z,8.42
2022-12-01T12:30:51.473Z,8.41
2022-12-01T12:31:52.058Z,8.41
2022-12-01T12:32:52.013Z,8.40
2022-12-01T12:33:52.754Z,8.40
2022-12-01T12:34:52.011Z,8.38
2022-12-01T12:35:51.422Z,8.36
2022-12-01T12:36:51.963Z,8.37
2022-12-01T12:37:51.960Z,8.36
2022-12-01T12:38:51.958Z,8.36
2022-12-01T12:39:52.832Z,8.35
2022-12-01T12:40:52.244Z,8.34
2022-12-01T12:41:51.353Z,8.34
2022-12-01T12:42:51.904Z,8.32
2022-12-01T12:43:51.896Z,8.31
2022-12-01T12:44:51.884Z,8.31
2022-12-01T12:45:52.156Z,8.30
2022-12-01T12:46:51.853Z,8.28
2022-12-01T12:47:51.246Z,8.25
2022-12-01T12:49:12.097Z,8.24
2022-12-01T12:49:52.425Z,8.22
2022-12-01T12:50:51.145Z,8.21
2022-12-01T12:51:51.814Z,8.20
2022-12-01T12:52:52.076Z,8.20
2022-12-01T12:53:51.860Z,8.21
2022-12-01T12:54:52.056Z,8.20
2022-12-01T12:55:51.786Z,8.21
2022-12-01T12:56:51.757Z,8.22
2022-12-01T12:57:51.761Z,8.21
2022-12-01T12:58:51.736Z,8.21
2022-12-01T12:59:51.261Z,8.21
2022-12-01T13:00:51.048Z,8.21
2022-12-01T13:01:51.721Z,8.23
2022-12-01T13:02:51.761Z,8.23
2022-12-01T13:03:51.678Z,8.22
2022-12-01T13:04:51.958Z,8.21
2022-12-01T13:05:51.646Z,8.21
2022-12-01T13:06:51.660Z,8.20
2022-12-01T13:07:51.673Z,8.19
2022-12-01T13:08:50.981Z,8.18
2022-12-01T13:09:52.362Z,8.17
2022-12-01T13:10:51.893Z,8.17
2022-12-01T13:11:51.592Z,8.17
2022-12-01T13:12:51.580Z,8.17
2022-12-01T13:13:51.571Z,8.16
2022-12-01T13:14:54.127Z,8.16
2022-12-01T13:15:52.640Z,8.16
2022-12-01T13:16:51.550Z,8.15
2022-12-01T13:17:51.509Z,8.16